Time;durP1;ratioP1;P1;durP2;ratioP2;P2;SDS_P1;SDS_P2;PMS_P1;PMS_P2;Temp;Humidity;BMP_temperature;BMP_pressure;BME280_temperature;BME280_humidity;BME280_pressure;Samples;Min_cycle;Max_cycle;Signal;HPM_P1;HPM_P2
2022/06/01 00:02:15;;;;;;;23.17;16.80;;;11.30;99.90;;;;;;5050801;28;20079;-79
2022/06/01 00:04:41;;;;;;;18.60;15.95;;;11.10;99.90;;;;;;5073399;28;20053;-79
2022/06/01 00:07:07;;;;;;;20.67;16.23;;;11.10;99.90;;;;;;5061980;28;20657;-78
2022/06/01 00:09:33;;;;;;;21.35;16.05;;;11.10;99.90;;;;;;5054898;28;20136;-79
2022/06/01 00:11:59;;;;;;;20.23;16.70;;;11.10;99.90;;;;;;5061827;28;20115;-79
2022/06/01 00:14:24;;;;;;;20.55;16.85;;;11.10;99.90;;;;;;5074572;28;20115;-79
2022/06/01 00:16:55;;;;;;;21.27;16.85;;;11.10;99.90;;;;;;5071966;28;20041;-79
2022/06/01 00:19:22;;;;;;;18.48;16.50;;;11.20;99.90;;;;;;5074557;28;20390;-79
2022/06/01 00:24:33;;;;;;;22.70;17.80;;;11.10;99.90;;;;;;5053504;28;20083;-79
2022/06/01 00:26:59;;;;;;;19.75;17.40;;;10.90;99.90;;;;;;5054293;28;20060;-79
2022/06/01 00:29:25;;;;;;;23.65;17.60;;;10.90;99.90;;;;;;5038004;28;20052;-79
2022/06/01 00:31:50;;;;;;;25.70;18.08;;;10.90;99.90;;;;;;5054326;28;20048;-79
2022/06/01 00:34:17;;;;;;;20.98;17.83;;;10.90;99.90;;;;;;5053466;28;20060;-79
2022/06/01 00:36:43;;;;;;;18.02;16.17;;;10.80;99.90;;;;;;5053102;28;20060;-79
2022/06/01 00:39:08;;;;;;;20.35;17.77;;;10.80;99.90;;;;;;5071771;28;20053;-78
2022/06/01 00:41:35;;;;;;;19.42;17.40;;;10.80;99.90;;;;;;5072565;28;20044;-79
2022/06/01 00:44:00;;;;;;;20.25;17.55;;;10.70;99.90;;;;;;5072881;28;20080;-79
2022/06/01 00:46:26;;;;;;;20.80;18.58;;;10.80;99.90;;;;;;5072970;28;20498;-79
2022/06/01 00:48:58;;;;;;;21.95;19.42;;;10.70;99.90;;;;;;5072893;28;20505;-79
2022/06/01 00:51:26;;;;;;;22.05;19.70;;;10.70;99.90;;;;;;5072489;28;20513;-79
2022/06/01 00:53:54;;;;;;;22.73;19.13;;;10.70;99.90;;;;;;5074030;28;20094;-79
2022/06/01 00:56:25;;;;;;;25.13;20.77;;;10.60;99.90;;;;;;5073184;28;20089;-79
2022/06/01 00:58:55;;;;;;;23.42;19.58;;;10.50;99.90;;;;;;5052817;28;20048;-79
2022/06/01 01:01:21;;;;;;;21.90;19.15;;;10.50;99.90;;;;;;5053798;28;20055;-83
2022/06/01 01:03:50;;;;;;;19.55;17.08;;;10.50;99.90;;;;;;5052678;28;20053;-79
2022/06/01 01:06:28;;;;;;;22.48;19.55;;;10.50;99.90;;;;;;5053882;28;20136;-79
2022/06/01 01:08:56;;;;;;;23.25;19.33;;;10.50;99.90;;;;;;5053806;28;20060;-79
2022/06/01 01:11:44;;;;;;;24.42;19.35;;;10.60;99.90;;;;;;5053570;28;20409;-79
2022/06/01 01:14:13;;;;;;;23.58;19.48;;;10.60;99.90;;;;;;5011848;28;20667;-79
2022/06/01 01:16:39;;;;;;;18.60;16.70;;;10.60;99.90;;;;;;4994882;28;20525;-79
2022/06/01 01:19:16;;;;;;;21.02;18.00;;;10.70;99.90;;;;;;5031287;28;20053;-79
2022/06/01 01:22:10;;;;;;;19.23;16.60;;;10.70;99.90;;;;;;5013423;28;20045;-78
2022/06/01 01:25:08;;;;;;;20.40;16.70;;;10.70;99.90;;;;;;5012829;28;20049;-79
2022/06/01 01:27:34;;;;;;;19.55;17.15;;;10.70;99.90;;;;;;5009646;28;20128;-79
2022/06/01 01:29:59;;;;;;;18.95;15.02;;;10.90;99.90;;;;;;5031058;28;20129;-79
2022/06/01 01:32:25;;;;;;;20.45;16.30;;;10.80;99.90;;;;;;5009843;28;20144;-79
2022/06/01 01:34:50;;;;;;;16.35;14.75;;;10.80;99.90;;;;;;4995209;28;20427;-79
2022/06/01 01:37:27;;;;;;;17.65;15.85;;;10.90;99.90;;;;;;4978894;28;20053;-79
2022/06/01 01:39:55;;;;;;;17.45;15.52;;;10.90;99.90;;;;;;5019113;28;20041;-79
2022/06/01 01:42:21;;;;;;;19.83;15.77;;;11.00;99.90;;;;;;5026358;28;20045;-79
2022/06/01 01:44:55;;;;;;;17.85;15.32;;;11.10;99.90;;;;;;4995421;28;20057;-79
2022/06/01 01:47:21;;;;;;;21.27;16.10;;;11.10;99.90;;;;;;5023432;28;20045;-79
2022/06/01 01:49:47;;;;;;;18.30;16.15;;;11.00;99.90;;;;;;4995910;28;20050;-79
2022/06/01 01:52:16;;;;;;;18.80;16.20;;;11.00;99.90;;;;;;5046672;28;20053;-79
2022/06/01 01:55:07;;;;;;;19.85;17.00;;;11.00;99.90;;;;;;5052937;28;20055;-79
2022/06/01 01:57:42;;;;;;;;;;;10.90;99.90;;;;;;5052220;28;20123;-79
2022/06/01 02:00:17;;;;;;;20.02;16.70;;;10.90;99.90;;;;;;5052434;28;19943;-79
2022/06/01 02:03:17;;;;;;;17.92;16.02;;;10.90;99.90;;;;;;5051605;28;20498;-79
2022/06/01 02:06:04;;;;;;;16.88;14.95;;;10.90;99.90;;;;;;5052600;28;20473;-79
2022/06/01 02:08:35;;;;;;;17.42;15.30;;;10.90;99.90;;;;;;5052455;28;20053;-81
2022/06/01 02:14:19;;;;;;;19.15;16.85;;;11.00;99.90;;;;;;5053855;28;20055;-79
2022/06/01 02:17:02;;;;;;;18.27;16.10;;;11.00;99.90;;;;;;5052393;28;20037;-79
2022/06/01 02:19:33;;;;;;;18.45;16.50;;;11.00;99.90;;;;;;5056097;28;20045;-79
2022/06/01 02:21:59;;;;;;;20.52;16.45;;;11.00;99.90;;;;;;5069823;28;20105;-79
2022/06/01 02:24:26;;;;;;;17.58;15.52;;;10.90;99.90;;;;;;5071448;28;20047;-79
2022/06/01 02:26:54;;;;;;;17.52;14.65;;;10.90;99.90;;;;;;5072451;28;20109;-79
2022/06/01 02:29:43;;;;;;;19.08;16.83;;;10.90;99.90;;;;;;5052579;28;20064;-79
2022/06/01 02:32:11;;;;;;;18.83;16.83;;;10.90;99.90;;;;;;5051005;28;20068;-79
2022/06/01 02:34:39;;;;;;;19.13;16.17;;;10.90;99.90;;;;;;5052737;28;20045;-79
2022/06/01 02:37:07;;;;;;;19.45;17.45;;;10.80;99.90;;;;;;5070885;28;20124;-79
2022/06/01 02:39:37;;;;;;;20.73;17.15;;;10.70;99.90;;;;;;5071052;28;20048;-83
2022/06/01 02:42:31;;;;;;;23.42;19.52;;;10.70;99.90;;;;;;5052463;28;20049;-79
2022/06/01 02:45:06;;;;;;;21.23;18.98;;;10.70;99.90;;;;;;5052452;28;20497;-79
2022/06/01 02:47:35;;;;;;;18.70;16.80;;;10.70;99.90;;;;;;5052081;28;20033;-79
2022/06/01 02:50:01;;;;;;;20.13;18.00;;;10.70;99.90;;;;;;5051238;28;20064;-80
2022/06/01 02:52:28;;;;;;;21.55;18.88;;;10.60;99.90;;;;;;5069355;28;20048;-80
2022/06/01 02:54:54;;;;;;;21.90;19.15;;;10.50;99.90;;;;;;5071500;28;20045;-80
2022/06/01 02:57:21;;;;;;;22.00;19.50;;;10.50;99.90;;;;;;5071041;28;20048;-80
2022/06/01 02:59:47;;;;;;;22.63;20.33;;;10.50;99.90;;;;;;5075052;28;20052;-80
2022/06/01 03:02:13;;;;;;;27.95;20.90;;;10.40;99.90;;;;;;5072842;28;20052;-80
2022/06/01 03:04:42;;;;;;;26.20;21.58;;;10.40;99.90;;;;;;5076280;28;20041;-80
2022/06/01 03:07:10;;;;;;;23.25;20.85;;;10.40;99.90;;;;;;5066112;28;20505;-80
2022/06/01 03:09:36;;;;;;;27.00;21.88;;;10.30;99.90;;;;;;5055868;28;20098;-80
2022/06/01 03:12:02;;;;;;;27.42;22.10;;;10.30;99.90;;;;;;5063398;28;20044;-80
2022/06/01 03:14:28;;;;;;;25.83;23.10;;;10.20;99.90;;;;;;5075015;28;20052;-80
2022/06/01 03:16:55;;;;;;;24.95;21.33;;;10.20;99.90;;;;;;5072160;28;20040;-80
2022/06/01 03:19:21;;;;;;;33.28;24.52;;;10.20;99.90;;;;;;5054859;28;20053;-80
2022/06/01 03:21:47;;;;;;;28.17;22.75;;;10.20;99.90;;;;;;5057006;28;20474;-81
2022/06/01 03:24:14;;;;;;;23.50;20.45;;;10.20;99.90;;;;;;5054398;28;20114;-80
2022/06/01 03:26:39;;;;;;;29.58;22.63;;;10.20;99.90;;;;;;5055603;28;20123;-80
2022/06/01 03:29:05;;;;;;;29.40;21.58;;;10.20;99.90;;;;;;5055503;28;20048;-80
2022/06/01 03:31:31;;;;;;;25.85;21.23;;;10.20;99.90;;;;;;5054808;28;20055;-80
2022/06/01 03:33:57;;;;;;;25.80;22.58;;;10.20;99.90;;;;;;5068418;28;20044;-80
2022/06/01 03:36:24;;;;;;;30.52;23.77;;;10.30;99.90;;;;;;5075566;28;20416;-80
2022/06/01 03:38:49;;;;;;;25.77;22.08;;;10.30;99.90;;;;;;5063022;28;20064;-80
2022/06/01 03:41:15;;;;;;;29.02;23.50;;;10.30;99.90;;;;;;5055843;28;20045;-80
2022/06/01 03:46:25;;;;;;;32.42;25.60;;;10.30;99.90;;;;;;5055236;28;20114;-80
2022/06/01 03:48:51;;;;;;;27.15;23.98;;;10.30;99.90;;;;;;5064511;28;20068;-80
2022/06/01 03:51:16;;;;;;;31.08;25.02;;;10.30;99.90;;;;;;5074257;28;20528;-80
2022/06/01 03:53:42;;;;;;;28.30;24.27;;;10.30;99.90;;;;;;5069404;28;20048;-80
2022/06/01 03:56:08;;;;;;;29.58;25.08;;;10.30;99.90;;;;;;5055674;28;20045;-80
2022/06/01 03:58:35;;;;;;;33.65;27.67;;;10.40;99.90;;;;;;5054216;28;20394;-80
2022/06/01 04:01:02;;;;;;;36.67;28.75;;;10.40;99.90;;;;;;5054364;28;20128;-80
2022/06/01 04:03:29;;;;;;;29.40;24.42;;;10.40;99.90;;;;;;5054488;28;20084;-81
2022/06/01 04:05:54;;;;;;;36.85;29.50;;;10.40;99.90;;;;;;5055183;28;20095;-81
2022/06/01 04:08:21;;;;;;;38.42;29.63;;;10.50;99.90;;;;;;5070541;28;20049;-84
2022/06/01 04:10:47;;;;;;;43.65;31.30;;;10.40;99.90;;;;;;5073053;28;20040;-81
2022/06/01 04:13:14;;;;;;;42.35;31.42;;;10.40;99.90;;;;;;5074454;28;20049;-81
2022/06/01 04:15:40;;;;;;;40.10;30.42;;;10.30;99.90;;;;;;5073562;28;20486;-81
2022/06/01 04:18:06;;;;;;;44.20;31.02;;;10.30;99.90;;;;;;5057122;28;20096;-81
2022/06/01 04:20:32;;;;;;;38.92;30.52;;;10.30;99.90;;;;;;5072444;28;20524;-81
2022/06/01 04:23:00;;;;;;;40.88;31.23;;;10.30;99.90;;;;;;5075178;28;20087;-82
2022/06/01 04:25:26;;;;;;;42.30;31.25;;;10.30;99.90;;;;;;5071534;28;20052;-81
2022/06/01 04:27:52;;;;;;;43.63;31.95;;;10.40;99.90;;;;;;5073575;28;20057;-82
2022/06/01 04:30:19;;;;;;;38.88;30.67;;;10.30;99.90;;;;;;5075167;28;20059;-82
2022/06/01 04:32:46;;;;;;;40.58;30.70;;;10.40;99.90;;;;;;5075063;28;20097;-81
2022/06/01 04:35:13;;;;;;;36.10;29.13;;;10.40;99.90;;;;;;5074155;28;20182;-81
2022/06/01 04:37:38;;;;;;;43.55;32.72;;;10.40;99.90;;;;;;5058353;28;20194;-82
2022/06/01 04:40:43;;;;;;;41.40;32.03;;;10.50;99.90;;;;;;5073930;28;20131;-82
2022/06/01 04:43:10;;;;;;;40.65;32.70;;;10.50;99.90;;;;;;5053933;28;20083;-81
2022/06/01 04:45:35;;;;;;;40.55;32.30;;;10.50;99.90;;;;;;5058653;28;20044;-81
2022/06/01 04:48:01;;;;;;;40.53;32.70;;;10.70;99.90;;;;;;5073427;28;20071;-82
2022/06/01 04:50:27;;;;;;;45.67;33.10;;;10.70;99.90;;;;;;5074306;28;20044;-81
2022/06/01 04:52:52;;;;;;;37.47;30.88;;;10.70;99.90;;;;;;5057767;28;20048;-82
2022/06/01 04:55:18;;;;;;;38.65;30.23;;;10.80;99.90;;;;;;5054902;28;20048;-81
2022/06/01 04:57:43;;;;;;;43.85;34.58;;;10.80;99.90;;;;;;5074192;28;20036;-81
2022/06/01 05:00:11;;;;;;;37.38;31.38;;;10.90;99.90;;;;;;5063758;28;20114;-81
2022/06/01 05:02:36;;;;;;;42.38;33.30;;;10.90;99.90;;;;;;5057547;28;20052;-82
2022/06/01 05:05:03;;;;;;;36.42;29.08;;;11.00;99.90;;;;;;5055077;28;20406;-81
2022/06/01 05:07:29;;;;;;;39.50;32.22;;;11.00;99.90;;;;;;5054067;28;20041;-81
2022/06/01 05:10:13;;;;;;;38.63;32.30;;;11.00;99.90;;;;;;5067764;28;20055;-81
2022/06/01 05:12:38;;;;;;;39.20;32.85;;;11.00;99.90;;;;;;5072932;28;20102;-81
2022/06/01 05:15:04;;;;;;;41.55;33.13;;;11.10;99.90;;;;;;5072792;28;20079;-82
2022/06/01 05:17:31;;;;;;;39.90;33.00;;;11.10;99.90;;;;;;5073770;28;20443;-83
2022/06/01 05:19:58;;;;;;;37.90;30.90;;;11.20;99.90;;;;;;5072215;28;20064;-82
2022/06/01 05:22:24;;;;;;;36.35;30.77;;;11.20;99.90;;;;;;5072622;28;20056;-81
2022/06/01 05:24:50;;;;;;;37.60;29.23;;;11.30;99.90;;;;;;5073726;28;20044;-81
2022/06/01 05:27:15;;;;;;;33.35;26.50;;;11.30;99.90;;;;;;5073716;28;20485;-81
2022/06/01 05:29:41;;;;;;;36.05;29.30;;;11.50;99.90;;;;;;5073392;28;20048;-81
2022/06/01 05:32:07;;;;;;;33.85;30.10;;;11.70;99.90;;;;;;5055781;28;20052;-81
2022/06/01 05:34:32;;;;;;;31.98;27.50;;;11.60;99.90;;;;;;5059897;28;20056;-81
2022/06/01 05:36:58;;;;;;;35.92;29.13;;;11.60;99.90;;;;;;5060756;28;20049;-84
2022/06/01 05:39:24;;;;;;;34.55;28.85;;;11.70;99.90;;;;;;5058011;28;20040;-81
2022/06/01 05:41:50;;;;;;;39.45;30.05;;;11.90;99.90;;;;;;5067424;28;20036;-85
2022/06/01 05:44:16;;;;;;;33.90;28.23;;;11.80;99.90;;;;;;5052748;28;20494;-81
2022/06/01 05:46:42;;;;;;;33.78;29.23;;;12.00;99.90;;;;;;5053184;28;20559;-80
2022/06/01 05:49:08;;;;;;;35.42;28.40;;;11.90;99.90;;;;;;5035066;28;20056;-82
2022/06/01 05:51:35;;;;;;;38.08;30.48;;;11.90;99.90;;;;;;5052427;28;20049;-81
2022/06/01 05:54:02;;;;;;;34.55;28.55;;;11.80;99.90;;;;;;5035297;28;20056;-81
2022/06/01 05:56:28;;;;;;;37.25;30.77;;;11.70;99.90;;;;;;5052292;28;20055;-80
2022/06/01 05:58:53;;;;;;;35.75;28.52;;;11.60;99.90;;;;;;5053236;28;20053;-81
2022/06/01 06:01:22;;;;;;;37.65;31.08;;;11.50;99.90;;;;;;5035355;28;20053;-81
2022/06/01 06:03:51;;;;;;;37.97;30.60;;;11.50;99.90;;;;;;5052982;28;20053;-80
2022/06/01 06:06:17;;;;;;;35.65;30.67;;;11.40;99.90;;;;;;5052550;28;20124;-81
2022/06/01 06:08:49;;;;;;;39.83;31.02;;;11.50;99.90;;;;;;5053298;28;20048;-90
2022/06/01 06:11:16;;;;;;;39.15;28.13;;;11.60;99.90;;;;;;5052448;28;20056;-80
2022/06/01 06:13:43;;;;;;;34.83;28.38;;;11.70;99.90;;;;;;5053334;28;20550;-80
2022/06/01 06:16:09;;;;;;;33.22;26.92;;;11.80;99.90;;;;;;5052994;28;20076;-80
2022/06/01 06:18:35;;;;;;;32.33;27.90;;;11.90;99.90;;;;;;5052772;28;20047;-81
2022/06/01 06:21:02;;;;;;;26.15;23.27;;;12.00;99.90;;;;;;5053093;28;20075;-80
2022/06/01 06:23:27;;;;;;;26.00;23.08;;;12.00;99.90;;;;;;5054260;28;20402;-81
2022/06/01 06:25:53;;;;;;;25.52;22.33;;;12.30;99.90;;;;;;5037562;28;20053;-81
2022/06/01 06:28:19;;;;;;;25.33;20.55;;;12.30;99.90;;;;;;5054588;28;20505;-80
2022/06/01 06:30:45;;;;;;;21.85;17.88;;;12.60;99.90;;;;;;5052597;28;20061;-82
2022/06/01 06:33:11;;;;;;;19.98;17.88;;;12.70;99.90;;;;;;5052661;28;20053;-82
2022/06/01 06:35:37;;;;;;;19.77;17.60;;;13.00;99.90;;;;;;5053523;28;20445;-81
2022/06/01 06:38:04;;;;;;;16.00;14.25;;;13.20;99.90;;;;;;5053020;28;20084;-81
2022/06/01 06:40:29;;;;;;;17.27;13.85;;;13.40;99.90;;;;;;5019642;28;20131;-81
2022/06/01 06:42:55;;;;;;;14.25;12.75;;;13.50;99.90;;;;;;5052337;28;20095;-81
2022/06/01 06:45:21;;;;;;;16.15;13.10;;;13.60;99.90;;;;;;5052746;28;20444;-81
2022/06/01 06:47:47;;;;;;;13.57;12.18;;;13.60;99.90;;;;;;5054074;28;20045;-82
2022/06/01 06:50:15;;;;;;;14.68;12.35;;;13.50;99.90;;;;;;5053206;28;20248;-81
2022/06/01 06:52:41;;;;;;;13.25;11.85;;;13.50;99.90;;;;;;5053716;28;20053;-81
2022/06/01 06:55:08;;;;;;;12.60;10.73;;;13.70;99.90;;;;;;5052217;28;20195;-81
2022/06/01 06:57:34;;;;;;;13.00;11.38;;;14.30;99.90;;;;;;5051855;28;20041;-81
2022/06/01 07:00:00;;;;;;;12.75;11.40;;;15.30;99.90;;;;;;5052613;28;20406;-80
2022/06/01 07:02:25;;;;;;;13.05;11.63;;;15.70;99.90;;;;;;5053095;28;20049;-81
2022/06/01 07:04:51;;;;;;;13.60;10.95;;;15.60;99.90;;;;;;5052721;28;20056;-81
2022/06/01 07:07:17;;;;;;;12.63;11.32;;;15.50;99.90;;;;;;5052522;28;20087;-86
2022/06/01 07:09:42;;;;;;;12.77;11.48;;;15.50;99.90;;;;;;5052584;28;20123;-81
2022/06/01 07:12:10;;;;;;;12.13;10.93;;;15.50;99.90;;;;;;5051521;28;20052;-81
2022/06/01 07:14:36;;;;;;;12.80;10.57;;;15.40;99.90;;;;;;5051360;28;20136;-82
2022/06/01 07:17:03;;;;;;;13.00;10.73;;;15.30;99.90;;;;;;5051356;28;20064;-81
2022/06/01 07:19:28;;;;;;;11.52;10.32;;;15.20;99.90;;;;;;5051135;28;20051;-81
2022/06/01 07:21:54;;;;;;;11.80;10.30;;;15.10;99.90;;;;;;5035012;28;20048;-81
2022/06/01 07:24:21;;;;;;;10.93;9.77;;;15.10;99.90;;;;;;5034385;28;20131;-81
2022/06/01 07:26:48;;;;;;;9.98;8.52;;;15.10;99.90;;;;;;5052082;28;20036;-80
2022/06/01 07:29:15;;;;;;;9.82;8.70;;;15.00;99.90;;;;;;5051222;28;20132;-81
2022/06/01 07:31:42;;;;;;;10.23;9.15;;;15.10;99.90;;;;;;5052222;28;20458;-81
2022/06/01 07:34:07;;;;;;;11.32;8.60;;;15.20;99.90;;;;;;5050922;28;20497;-81
2022/06/01 07:36:34;;;;;;;10.02;8.38;;;16.00;99.90;;;;;;5051296;28;20056;-80
2022/06/01 07:44:32;;;;;;;9.18;7.90;;;19.40;99.90;;;;;;5051897;28;20053;-81
2022/06/01 07:46:58;;;;;;;9.02;7.57;;;19.30;99.90;;;;;;5054343;28;20099;-80
2022/06/01 07:49:25;;;;;;;8.15;7.00;;;19.20;99.90;;;;;;5054857;28;20045;-80
2022/06/01 07:51:53;;;;;;;7.93;7.10;;;18.90;99.90;;;;;;5055604;28;20124;-80
2022/06/01 07:54:20;;;;;;;7.40;6.63;;;18.60;99.90;;;;;;5037932;28;20048;-81
2022/06/01 07:56:46;;;;;;;8.88;7.57;;;18.20;99.90;;;;;;5054556;28;20045;-90
2022/06/01 07:59:12;;;;;;;9.45;7.65;;;17.70;99.90;;;;;;5038108;28;20056;-82
2022/06/01 08:01:39;;;;;;;9.02;7.80;;;16.80;99.90;;;;;;5055556;28;20057;-83
2022/06/01 08:04:06;;;;;;;5.70;5.05;;;15.80;99.90;;;;;;5056168;28;20049;-82
2022/06/01 08:06:34;;;;;;;4.63;2.80;;;14.60;99.90;;;;;;5054520;28;20095;-85
2022/06/01 08:09:00;;;;;;;8.80;3.50;;;13.50;99.90;;;;;;5055364;28;20044;-84
2022/06/01 08:14:13;;;;;;;1.02;0.68;;;12.00;99.90;;;;;;5053888;28;20063;-83
2022/06/01 08:16:40;;;;;;;2.72;0.90;;;11.50;99.90;;;;;;5037757;28;20051;-81
2022/06/01 08:19:06;;;;;;;6.05;1.42;;;11.20;99.90;;;;;;5053951;28;20053;-82
2022/06/01 08:21:36;;;;;;;3.53;1.60;;;10.90;99.90;;;;;;5053896;28;20056;-81
2022/06/01 08:24:03;;;;;;;3.72;2.80;;;10.70;99.90;;;;;;5054828;28;20133;-81
2022/06/01 08:26:29;;;;;;;7.43;4.10;;;10.60;99.90;;;;;;5036876;28;20033;-82
2022/06/01 08:28:55;;;;;;;6.00;3.65;;;10.60;99.90;;;;;;5053501;28;20100;-81
2022/06/01 08:31:21;;;;;;;5.10;3.50;;;10.50;99.90;;;;;;5054017;28;20080;-80
2022/06/01 08:33:47;;;;;;;6.07;3.25;;;10.50;99.90;;;;;;5053775;28;20053;-81
2022/06/01 08:36:12;;;;;;;5.78;2.80;;;10.60;99.90;;;;;;5037357;28;20047;-80
2022/06/01 08:38:38;;;;;;;6.53;2.63;;;10.80;99.90;;;;;;5054748;28;20048;-81
2022/06/01 08:41:13;;;;;;;4.53;2.67;;;10.90;99.90;;;;;;5054477;28;20476;-81
2022/06/01 08:43:51;;;;;;;7.53;2.20;;;11.30;99.90;;;;;;5037117;28;20056;-85
2022/06/01 08:46:18;;;;;;;4.07;2.38;;;11.60;99.90;;;;;;5055193;28;20045;-81
2022/06/01 08:48:49;;;;;;;5.43;1.80;;;12.00;99.90;;;;;;5037070;28;20045;-81
2022/06/01 08:51:19;;;;;;;2.33;1.43;;;12.60;99.90;;;;;;5055363;28;20132;-82
2022/06/01 08:53:46;;;;;;;1.35;0.60;;;13.30;99.90;;;;;;5054588;28;20275;-82
2022/06/01 08:56:20;;;;;;;1.00;0.90;;;13.80;99.90;;;;;;5036294;28;20391;-81
2022/06/01 08:59:19;;;;;;;1.25;0.98;;;13.90;99.90;;;;;;5054331;28;20056;-78
2022/06/01 09:02:16;;;;;;;1.10;1.00;;;14.90;99.90;;;;;;5066714;28;20045;-82
2022/06/01 09:04:51;;;;;;;2.05;1.70;;;16.30;99.90;;;;;;5053365;28;20077;-83
2022/06/01 09:07:33;;;;;;;3.15;1.60;;;17.80;99.90;;;;;;5054237;28;20041;-83
2022/06/01 09:10:13;;;;;;;2.38;2.17;;;18.70;99.90;;;;;;5053800;28;20041;-83
2022/06/01 09:12:44;;;;;;;2.70;2.50;;;19.40;99.90;;;;;;5036553;28;20088;-86
2022/06/01 09:15:23;;;;;;;6.40;3.70;;;20.00;99.90;;;;;;5054488;28;20045;-83
2022/06/01 09:17:48;;;;;;;3.95;3.47;;;20.20;99.90;;;;;;5054043;28;20497;-84
2022/06/01 09:23:15;;;;;;;6.63;4.57;;;20.30;99.90;;;;;;5052855;28;20452;-84
2022/06/01 09:25:52;;;;;;;5.75;3.83;;;19.50;99.90;;;;;;5053971;28;20036;-83
2022/06/01 09:28:22;;;;;;;7.05;4.50;;;19.20;99.90;;;;;;5053858;28;20117;-84
2022/06/01 09:31:13;;;;;;;5.43;4.90;;;18.40;99.90;;;;;;5055305;28;20464;-83
2022/06/01 09:33:38;;;;;;;4.53;3.70;;;17.30;99.90;;;;;;4995999;28;20515;-83
2022/06/01 09:36:21;;;;;;;3.80;2.95;;;16.20;99.90;;;;;;5011883;28;20133;-83
2022/06/01 09:38:47;;;;;;;5.80;3.85;;;15.30;99.90;;;;;;4996046;28;20076;-83
2022/06/01 09:41:27;;;;;;;5.10;3.80;;;14.50;99.90;;;;;;5012344;28;20513;-82
2022/06/01 09:44:08;;;;;;;6.93;3.42;;;15.30;99.90;;;;;;5014725;28;20045;-82
2022/06/01 09:46:52;;;;;;;3.37;2.83;;;17.00;99.90;;;;;;5011745;28;20136;-83
2022/06/01 09:49:30;;;;;;;5.07;3.22;;;18.50;99.90;;;;;;5011687;28;20276;-84
2022/06/01 09:52:12;;;;;;;3.65;2.53;;;20.00;99.90;;;;;;5014298;28;20057;-84
2022/06/01 09:54:54;;;;;;;2.55;1.55;;;21.00;99.90;;;;;;4996077;28;20057;-83
2022/06/01 09:57:27;;;;;;;8.50;1.58;;;21.50;99.90;;;;;;5011458;28;20385;-84
2022/06/01 10:08:28;;;;;;;1.85;1.60;;;23.10;99.90;;;;;;4999411;28;20057;-84
2022/06/01 10:11:08;;;;;;;1.67;1.58;;;23.20;98.20;;;;;;5044317;28;20056;-82
2022/06/01 10:13:38;;;;;;;2.90;1.90;;;22.40;95.60;;;;;;5062415;28;20075;-86
2022/06/01 10:16:35;;;;;;;2.20;2.00;;;21.40;99.90;;;;;;5059879;28;20458;-82
2022/06/01 10:19:03;;;;;;;3.15;2.00;;;20.10;99.90;;;;;;5056563;28;20045;-81
2022/06/01 10:21:47;;;;;;;2.17;1.98;;;19.40;99.90;;;;;;5054418;28;20084;-83
2022/06/01 10:24:20;;;;;;;2.95;1.73;;;20.30;99.90;;;;;;5052080;28;20045;-84
2022/06/01 10:26:52;;;;;;;1.90;1.70;;;21.50;95.50;;;;;;5054173;28;20485;-88
2022/06/01 10:29:24;;;;;;;2.90;2.58;;;22.00;95.40;;;;;;5052598;28;20114;-83
2022/06/01 10:31:56;;;;;;;2.17;1.90;;;21.90;99.90;;;;;;5053108;28;20045;-83
2022/06/01 10:34:48;;;;;;;2.10;1.90;;;22.60;91.40;;;;;;5035270;28;20502;-85
2022/06/01 10:37:27;;;;;;;2.65;2.35;;;22.70;91.90;;;;;;5052894;28;20444;-83
2022/06/01 10:40:27;;;;;;;2.60;2.40;;;21.60;93.90;;;;;;5052721;28;20524;-82
2022/06/01 10:43:16;;;;;;;2.87;2.57;;;20.20;96.60;;;;;;5051937;28;20114;-83
2022/06/01 10:45:54;;;;;;;3.00;2.50;;;19.00;99.90;;;;;;5052686;28;20398;-84
2022/06/01 10:48:29;;;;;;;3.35;2.83;;;18.10;99.90;;;;;;5051541;28;20048;-82
2022/06/01 10:51:21;;;;;;;3.85;2.42;;;17.40;99.90;;;;;;5051881;28;20053;-82
2022/06/01 10:54:26;;;;;;;3.83;1.60;;;16.90;99.90;;;;;;5050583;28;20525;-83
2022/06/01 10:56:52;;;;;;;3.90;0.90;;;16.20;99.90;;;;;;5052549;28;20124;-82
2022/06/01 10:59:18;;;;;;;2.85;0.90;;;15.40;99.90;;;;;;5034973;28;20136;-83
2022/06/01 11:02:12;;;;;;;0.88;0.80;;;14.70;99.90;;;;;;5051271;28;20045;-82
2022/06/01 11:04:57;;;;;;;2.50;1.63;;;14.10;99.90;;;;;;5051092;28;20053;-83
2022/06/01 11:07:43;;;;;;;3.63;1.20;;;13.30;99.90;;;;;;5034588;28;20108;-84
2022/06/01 11:10:41;;;;;;;1.85;1.40;;;12.80;99.90;;;;;;5051168;28;20045;-84
2022/06/01 11:13:12;;;;;;;1.70;1.23;;;12.50;99.90;;;;;;4978066;28;20049;-84
2022/06/01 11:15:40;;;;;;;3.03;1.20;;;12.40;99.90;;;;;;4994112;28;20112;-83
2022/06/01 11:18:20;;;;;;;3.10;1.50;;;12.50;99.90;;;;;;5010657;28;20061;-83
2022/06/01 11:21:01;;;;;;;2.40;1.73;;;12.90;99.90;;;;;;4981634;28;20153;-84
2022/06/01 11:23:42;;;;;;;5.30;2.07;;;13.50;99.90;;;;;;4981768;28;20412;-83
2022/06/01 11:26:32;;;;;;;1.60;1.30;;;14.90;99.90;;;;;;4998016;28;20049;-83
2022/06/01 11:29:14;;;;;;;1.20;0.80;;;17.00;99.90;;;;;;5014275;28;20057;-84
2022/06/01 11:31:44;;;;;;;0.50;0.40;;;18.90;99.90;;;;;;5014263;28;20307;-83
2022/06/01 11:34:17;;;;;;;2.15;0.50;;;19.80;99.90;;;;;;4998012;28;20120;-82
2022/06/01 11:36:54;;;;;;;1.88;0.60;;;19.50;99.90;;;;;;5014290;28;20207;-84
2022/06/01 11:39:43;;;;;;;0.85;0.40;;;19.50;99.90;;;;;;4997886;28;20046;-82
2022/06/01 11:42:26;;;;;;;0.73;0.50;;;20.30;96.50;;;;;;5013790;28;20049;-82
2022/06/01 11:45:18;;;;;;;0.50;0.40;;;21.00;99.90;;;;;;4997765;28;20140;-83
2022/06/01 11:47:50;;;;;;;0.50;0.30;;;21.70;85.80;;;;;;4939178;29;20051;-82
2022/06/01 11:50:57;;;;;;;0.55;0.30;;;22.20;89.30;;;;;;4963127;28;20554;-82
2022/06/01 11:53:33;;;;;;;1.50;0.30;;;22.00;76.70;;;;;;4920323;29;20090;-82
2022/06/01 11:56:24;;;;;;;0.40;0.30;;;20.90;85.70;;;;;;4920177;29;20126;-82
2022/06/01 11:59:12;;;;;;;0.50;0.20;;;20.30;94.10;;;;;;4864031;29;20060;-82
2022/06/01 12:01:41;;;;;;;0.28;0.28;;;19.80;92.40;;;;;;4879444;29;20113;-82
2022/06/01 12:04:51;;;;;;;0.45;0.20;;;19.10;97.60;;;;;;4879349;29;20060;-82
2022/06/01 12:07:34;;;;;;;0.60;0.20;;;18.40;99.00;;;;;;4864084;29;20057;-82
2022/06/01 12:10:22;;;;;;;1.35;0.40;;;18.00;99.90;;;;;;4880025;29;20151;-82
2022/06/01 12:12:59;;;;;;;2.88;0.38;;;18.50;99.90;;;;;;4864050;29;20147;-83
2022/06/01 12:15:32;;;;;;;0.30;0.30;;;20.50;99.90;;;;;;4879898;29;20065;-82
2022/06/01 12:18:14;;;;;;;0.63;0.52;;;21.90;79.90;;;;;;4881506;29;20144;-82
2022/06/01 12:20:44;;;;;;;0.38;0.28;;;22.80;77.90;;;;;;4875041;29;20052;-81
2022/06/01 12:28:52;;;;;;;1.48;0.80;;;24.70;60.20;;;;;;4907390;29;20156;-83
2022/06/01 12:31:36;;;;;;;1.83;0.97;;;24.70;62.20;;;;;;4973397;28;20054;-84
2022/06/01 12:37:53;;;;;;;1.77;1.08;;;25.00;57.30;;;;;;4935536;29;20055;-83
2022/06/01 12:40:21;;;;;;;2.20;1.30;;;24.70;56.60;;;;;;4923062;29;20062;-83
2022/06/01 12:42:56;;;;;;;2.25;1.20;;;23.90;58.20;;;;;;4923595;28;20069;-83
2022/06/01 12:45:34;;;;;;;1.55;1.17;;;22.80;63.10;;;;;;4973854;28;20051;-84
2022/06/01 12:48:05;;;;;;;1.88;1.20;;;22.30;67.20;;;;;;4957314;28;20059;-82
2022/06/01 12:50:45;;;;;;;1.48;1.20;;;22.60;68.80;;;;;;4973536;28;20050;-83
2022/06/01 12:53:15;;;;;;;4.90;1.80;;;22.60;66.10;;;;;;4957588;28;20058;-82
2022/06/01 12:55:42;;;;;;;2.92;1.52;;;22.00;68.30;;;;;;4973769;28;20057;-82
2022/06/01 12:58:22;;;;;;;1.50;1.30;;;22.00;69.90;;;;;;4973531;28;20042;-83
2022/06/01 13:00:55;;;;;;;1.92;1.50;;;22.80;65.50;;;;;;4973476;28;20055;-83
2022/06/01 13:03:23;;;;;;;1.20;1.10;;;23.20;63.10;;;;;;4957659;28;20082;-83
2022/06/01 13:13:12;;;;;;;2.03;1.83;;;23.00;59.00;;;;;;4993697;28;20035;-82
2022/06/01 13:15:43;;;;;;;2.15;1.67;;;21.60;68.70;;;;;;5060733;28;20059;-81
2022/06/01 13:18:26;;;;;;;2.45;1.95;;;21.00;74.50;;;;;;5053981;28;20049;-83
2022/06/01 13:21:00;;;;;;;2.15;1.60;;;20.80;76.10;;;;;;5052886;28;20233;-82
2022/06/01 13:23:55;;;;;;;2.10;1.40;;;20.40;79.80;;;;;;5036873;28;20489;-82
2022/06/01 13:26:33;;;;;;;2.08;1.10;;;20.70;71.50;;;;;;4995261;28;20053;-83
2022/06/01 13:29:14;;;;;;;2.78;1.30;;;20.70;80.60;;;;;;5011862;28;20628;-84
2022/06/01 13:31:42;;;;;;;1.75;1.10;;;21.10;77.80;;;;;;5011779;28;20062;-82
2022/06/01 13:34:18;;;;;;;4.25;1.27;;;21.20;73.50;;;;;;5011921;28;20081;-83
2022/06/01 13:36:44;;;;;;;1.35;1.23;;;21.10;70.60;;;;;;4995743;28;20116;-80
2022/06/01 13:39:12;;;;;;;1.35;1.17;;;20.60;72.30;;;;;;5011764;28;20048;-80
2022/06/01 13:41:50;;;;;;;1.95;1.00;;;19.90;75.10;;;;;;4979066;28;20534;-82
2022/06/01 13:44:45;;;;;;;1.50;1.08;;;19.30;79.00;;;;;;4994456;28;20495;-80